createdAt,value
2018-09-14T00:00:37.165Z,99.90
2018-09-14T00:03:06.052Z,99.90
2018-09-14T00:05:33.728Z,99.90
2018-09-14T00:08:01.797Z,99.90
2018-09-14T00:10:29.385Z,99.90
2018-09-14T00:12:56.962Z,99.90
2018-09-14T00:15:24.652Z,99.90
2018-09-14T00:17:52.268Z,99.90
2018-09-14T00:20:19.937Z,99.90
2018-09-14T00:22:47.530Z,99.90
2018-09-14T00:25:15.096Z,99.90
2018-09-14T00:27:42.689Z,99.90
2018-09-14T00:30:10.280Z,99.90
2018-09-14T00:32:37.839Z,99.90
2018-09-14T00:35:05.765Z,99.90
2018-09-14T00:37:33.327Z,99.90
2018-09-14T00:40:00.909Z,99.90
2018-09-14T00:42:28.516Z,99.90
2018-09-14T00:44:56.110Z,99.90
2018-09-14T00:47:23.670Z,99.90
2018-09-14T00:49:51.257Z,99.90
2018-09-14T00:52:18.894Z,99.90
2018-09-14T00:54:46.488Z,99.90
2018-09-14T00:57:14.089Z,99.90
2018-09-14T00:59:41.744Z,99.90
2018-09-14T01:02:09.284Z,99.90
2018-09-14T01:04:36.853Z,99.90
2018-09-14T01:07:04.549Z,99.90
2018-09-14T01:09:32.124Z,99.90
2018-09-14T01:11:59.744Z,99.90
2018-09-14T01:14:28.029Z,99.90
2018-09-14T01:16:56.421Z,99.90
2018-09-14T01:19:24.275Z,99.90
2018-09-14T01:21:51.938Z,99.90
2018-09-14T01:24:19.566Z,99.90
2018-09-14T01:26:47.149Z,99.90
2018-09-14T01:29:14.957Z,99.90
2018-09-14T01:31:44.581Z,99.90
2018-09-14T01:34:12.161Z,99.90
2018-09-14T01:36:39.723Z,99.90
2018-09-14T01:39:10.074Z,99.90
2018-09-14T01:41:38.078Z,99.90
2018-09-14T01:44:06.222Z,99.90
2018-09-14T01:46:33.798Z,99.90
2018-09-14T01:49:01.353Z,99.90
2018-09-14T01:51:28.925Z,99.90
2018-09-14T01:53:56.500Z,99.90
2018-09-14T01:56:24.112Z,99.90
2018-09-14T01:58:51.723Z,99.90
2018-09-14T02:01:19.514Z,99.90
2018-09-14T02:03:47.178Z,99.90
2018-09-14T02:06:14.889Z,99.90
2018-09-14T02:08:42.438Z,99.90
2018-09-14T02:11:10.033Z,99.90
2018-09-14T02:13:37.676Z,99.90
2018-09-14T02:16:05.342Z,99.90
2018-09-14T02:18:33.053Z,99.90
2018-09-14T02:21:00.604Z,99.90
2018-09-14T02:23:28.193Z,99.90
2018-09-14T02:25:55.850Z,99.90
2018-09-14T02:28:23.407Z,99.90
2018-09-14T02:30:51.059Z,99.90
2018-09-14T02:33:18.634Z,99.90
2018-09-14T02:35:46.252Z,99.90
2018-09-14T02:38:13.929Z,99.90
2018-09-14T02:40:41.525Z,99.90
2018-09-14T02:43:09.085Z,99.90
2018-09-14T02:45:36.692Z,99.90
2018-09-14T02:48:04.417Z,99.90
2018-09-14T02:50:32.237Z,99.90
2018-09-14T02:52:59.845Z,99.90
2018-09-14T02:55:27.486Z,99.90
2018-09-14T02:57:55.283Z,99.90
2018-09-14T03:00:22.860Z,99.90
2018-09-14T03:02:50.568Z,99.90
2018-09-14T03:05:18.104Z,99.90
2018-09-14T03:07:45.741Z,99.90
2018-09-14T03:10:13.421Z,99.90
2018-09-14T03:12:41.102Z,99.90
2018-09-14T03:15:08.768Z,99.90
2018-09-14T03:17:36.376Z,99.90
2018-09-14T03:20:03.992Z,99.90
2018-09-14T03:22:31.581Z,99.90
2018-09-14T03:24:59.157Z,99.90
2018-09-14T03:27:26.702Z,99.90
2018-09-14T03:29:54.622Z,99.90
2018-09-14T03:32:22.372Z,99.90
2018-09-14T03:34:49.827Z,99.90
2018-09-14T03:37:17.384Z,99.90
2018-09-14T03:39:44.977Z,99.90
2018-09-14T03:42:12.633Z,99.90
2018-09-14T03:44:40.246Z,99.90
2018-09-14T03:47:07.830Z,99.90
2018-09-14T03:49:35.410Z,99.90
2018-09-14T03:52:03.039Z,99.90
2018-09-14T03:54:30.951Z,99.90
2018-09-14T03:57:02.366Z,99.90
2018-09-14T03:59:30.220Z,99.90
2018-09-14T04:01:57.849Z,99.90
2018-09-14T04:04:25.475Z,99.90
2018-09-14T04:06:53.059Z,99.90
2018-09-14T04:09:20.631Z,99.90
2018-09-14T04:11:48.209Z,99.90
2018-09-14T04:14:15.789Z,99.90
2018-09-14T04:16:43.425Z,99.90
2018-09-14T04:19:11.008Z,99.90
2018-09-14T04:21:38.577Z,99.90
2018-09-14T04:24:06.262Z,99.90
2018-09-14T04:26:33.817Z,99.90
2018-09-14T04:29:01.418Z,99.90
2018-09-14T04:31:29.081Z,99.90
2018-09-14T04:33:56.670Z,99.90
2018-09-14T04:36:24.229Z,99.90
2018-09-14T04:38:51.833Z,99.90
2018-09-14T04:41:19.736Z,99.90
2018-09-14T04:43:47.339Z,99.90
2018-09-14T04:46:15.006Z,99.90
2018-09-14T04:48:42.545Z,99.90
2018-09-14T04:51:12.491Z,99.90
2018-09-14T04:53:40.045Z,99.90
2018-09-14T04:56:08.212Z,99.90
2018-09-14T04:58:36.051Z,99.90
2018-09-14T05:01:04.155Z,99.90
2018-09-14T05:03:31.718Z,99.90
2018-09-14T05:05:59.329Z,99.90
2018-09-14T05:08:26.933Z,99.90
2018-09-14T05:10:54.785Z,99.90
2018-09-14T05:13:22.340Z,99.90
2018-09-14T05:15:49.982Z,99.90
2018-09-14T05:18:17.661Z,99.90
2018-09-14T05:20:45.377Z,99.90
2018-09-14T05:23:12.990Z,99.90
2018-09-14T05:25:40.616Z,99.90
2018-09-14T05:28:08.601Z,99.90
2018-09-14T05:30:36.167Z,99.90
2018-09-14T05:33:03.770Z,99.90
2018-09-14T05:35:31.394Z,99.90
2018-09-14T05:37:58.998Z,99.90
2018-09-14T05:40:26.608Z,99.90
2018-09-14T05:42:54.314Z,99.90
2018-09-14T05:45:21.887Z,99.90
2018-09-14T05:47:49.445Z,99.90
2018-09-14T05:50:17.003Z,99.90
2018-09-14T05:52:44.585Z,99.90
2018-09-14T05:55:12.246Z,99.90
2018-09-14T05:57:39.863Z,99.90
2018-09-14T06:00:07.533Z,99.90
2018-09-14T06:02:35.195Z,99.90
2018-09-14T06:05:02.868Z,99.90
2018-09-14T06:07:30.434Z,99.90
2018-09-14T06:09:57.972Z,99.90
2018-09-14T06:12:25.562Z,99.90
2018-09-14T06:14:53.188Z,99.90
2018-09-14T06:17:20.775Z,99.90
2018-09-14T06:19:48.343Z,99.90
2018-09-14T06:22:15.939Z,99.90
2018-09-14T06:24:43.518Z,99.90
2018-09-14T06:27:11.134Z,99.90
2018-09-14T06:29:38.689Z,99.90
2018-09-14T06:32:06.265Z,99.90
2018-09-14T06:34:33.861Z,99.90
2018-09-14T06:37:01.443Z,99.90
2018-09-14T06:39:28.997Z,99.90
2018-09-14T06:41:56.568Z,99.90
2018-09-14T06:44:24.169Z,99.90
2018-09-14T06:46:51.848Z,99.90
2018-09-14T06:49:19.519Z,99.90
2018-09-14T06:51:47.081Z,99.90
2018-09-14T06:54:14.862Z,99.90
2018-09-14T06:56:42.483Z,99.90
2018-09-14T06:59:10.081Z,99.90
2018-09-14T07:01:37.669Z,99.90
2018-09-14T07:04:05.400Z,99.90
2018-09-14T07:06:33.067Z,99.90
2018-09-14T07:09:00.613Z,99.90
2018-09-14T07:11:28.256Z,99.90
2018-09-14T07:13:55.850Z,99.90
2018-09-14T07:16:23.460Z,99.90
2018-09-14T07:18:51.003Z,99.90
2018-09-14T07:21:18.627Z,99.90
2018-09-14T07:23:46.219Z,99.90
2018-09-14T07:26:13.861Z,99.90
2018-09-14T07:28:41.544Z,99.90
2018-09-14T07:31:09.144Z,99.90
2018-09-14T07:33:36.717Z,99.90
2018-09-14T07:36:04.317Z,99.90
2018-09-14T07:38:31.974Z,99.90
2018-09-14T07:40:59.621Z,99.90
2018-09-14T07:43:27.478Z,99.90
2018-09-14T07:45:55.030Z,99.90
2018-09-14T07:48:22.772Z,98.70
2018-09-14T07:50:50.977Z,91.00
2018-09-14T07:53:18.630Z,90.70
2018-09-14T07:55:46.228Z,83.80
2018-09-14T07:58:13.864Z,77.30
2018-09-14T08:00:41.465Z,82.00
2018-09-14T08:03:09.062Z,66.50
2018-09-14T08:05:36.637Z,65.40
2018-09-14T08:08:04.294Z,65.40
2018-09-14T08:10:31.873Z,63.30
2018-09-14T08:12:59.485Z,59.00
2018-09-14T08:15:27.078Z,58.40
2018-09-14T08:17:54.664Z,56.10
2018-09-14T08:20:22.261Z,55.70
2018-09-14T08:22:49.827Z,54.50
2018-09-14T08:25:17.427Z,53.30
2018-09-14T08:27:45.065Z,52.40
2018-09-14T08:30:12.672Z,51.80
2018-09-14T08:32:40.273Z,50.20
2018-09-14T08:35:07.967Z,49.90
2018-09-14T08:37:35.578Z,49.20
2018-09-14T08:40:03.295Z,48.50
2018-09-14T08:42:31.005Z,47.60
2018-09-14T08:44:58.646Z,46.70
2018-09-14T08:47:26.283Z,45.00
2018-09-14T08:49:53.913Z,44.80
2018-09-14T08:52:21.526Z,42.90
2018-09-14T08:54:49.120Z,40.80
2018-09-14T08:57:16.745Z,41.30
2018-09-14T08:59:44.362Z,42.00
2018-09-14T09:02:11.949Z,43.30
2018-09-14T09:04:39.524Z,43.50
2018-09-14T09:07:07.226Z,42.20
2018-09-14T09:09:35.659Z,41.40
2018-09-14T09:12:03.267Z,41.50
2018-09-14T09:14:30.866Z,40.20
2018-09-14T09:16:58.462Z,39.00
2018-09-14T09:19:26.103Z,38.80
2018-09-14T09:21:53.705Z,38.30
2018-09-14T09:24:21.284Z,39.60
2018-09-14T09:26:48.884Z,38.80
2018-09-14T09:29:16.622Z,38.30
2018-09-14T09:31:44.290Z,37.20
2018-09-14T09:34:11.878Z,37.10
2018-09-14T09:36:39.491Z,37.50
2018-09-14T09:39:10.006Z,36.90
2018-09-14T09:41:37.724Z,36.10
2018-09-14T09:44:05.375Z,35.60
2018-09-14T09:46:32.948Z,35.10
2018-09-14T09:49:00.581Z,34.60
2018-09-14T09:51:28.219Z,33.70
2018-09-14T09:53:55.784Z,34.70
2018-09-14T09:56:23.383Z,33.80
2018-09-14T09:58:51.057Z,33.40
2018-09-14T10:01:24.331Z,32.90
2018-09-14T10:03:57.568Z,33.70
2018-09-14T10:06:26.355Z,34.80
2018-09-14T10:08:54.827Z,34.80
2018-09-14T10:11:22.648Z,35.00
2018-09-14T10:13:50.321Z,34.50
2018-09-14T10:16:18.006Z,34.00
2018-09-14T10:18:45.666Z,33.30
2018-09-14T10:21:19.728Z,33.80
2018-09-14T10:23:47.371Z,32.30
2018-09-14T10:26:17.025Z,33.10
2018-09-14T10:28:57.392Z,32.10
2018-09-14T10:31:28.232Z,31.60
2018-09-14T10:33:56.830Z,32.40
2018-09-14T10:36:29.457Z,31.20
2018-09-14T10:39:06.716Z,30.60
2018-09-14T10:41:37.574Z,30.40
2018-09-14T10:44:09.117Z,29.20
2018-09-14T10:46:47.292Z,29.50
2018-09-14T10:49:20.153Z,29.40
2018-09-14T10:51:50.238Z,30.00
2018-09-14T10:54:34.637Z,29.80
2018-09-14T10:57:07.780Z,29.30
2018-09-14T10:59:42.853Z,31.00
2018-09-14T11:02:15.137Z,31.70
2018-09-14T11:04:47.073Z,31.90
2018-09-14T11:07:20.452Z,32.00
2018-09-14T11:09:50.015Z,33.40
2018-09-14T11:12:28.471Z,35.20
2018-09-14T11:17:39.130Z,37.90
2018-09-14T11:20:14.189Z,38.90
2018-09-14T11:22:53.998Z,38.90
2018-09-14T11:25:37.233Z,39.60
2018-09-14T11:28:05.045Z,40.40
2018-09-14T11:30:32.749Z,41.20
2018-09-14T11:33:07.385Z,41.20
2018-09-14T11:35:35.454Z,41.70
2018-09-14T11:38:15.211Z,42.50
2018-09-14T11:40:42.752Z,42.70
2018-09-14T11:43:10.359Z,43.10
2018-09-14T11:45:43.240Z,43.20
2018-09-14T11:48:16.501Z,42.90
2018-09-14T11:50:53.850Z,43.30
2018-09-14T11:53:38.360Z,44.10
2018-09-14T11:56:11.926Z,44.00
2018-09-14T11:58:46.763Z,44.40
2018-09-14T12:01:14.452Z,43.10
2018-09-14T12:03:47.679Z,42.80
2018-09-14T12:06:19.503Z,43.40
2018-09-14T12:08:47.093Z,43.70
2018-09-14T12:11:28.381Z,43.60
2018-09-14T12:13:56.052Z,42.70
2018-09-14T12:16:36.193Z,42.80
2018-09-14T12:19:04.716Z,42.90
2018-09-14T12:21:32.324Z,43.70
2018-09-14T12:23:59.907Z,43.50
2018-09-14T12:26:27.530Z,43.70
2018-09-14T12:29:06.021Z,44.50
2018-09-14T12:34:14.905Z,43.30
2018-09-14T12:36:42.546Z,43.10
2018-09-14T12:41:51.284Z,43.00
2018-09-14T12:44:18.861Z,42.80
2018-09-14T12:46:46.507Z,43.20
2018-09-14T12:49:14.108Z,43.50
2018-09-14T12:51:41.805Z,43.30
2018-09-14T12:54:09.396Z,42.70
2018-09-14T12:56:36.992Z,43.70
2018-09-14T12:59:04.660Z,44.10
2018-09-14T13:01:32.230Z,44.40
2018-09-14T13:03:59.948Z,44.60
2018-09-14T13:06:27.537Z,44.60
2018-09-14T13:08:55.205Z,44.10
2018-09-14T13:11:22.874Z,44.10
2018-09-14T13:13:50.474Z,44.00
2018-09-14T13:16:18.061Z,44.00
2018-09-14T13:18:45.685Z,43.60
2018-09-14T13:21:13.285Z,43.90
2018-09-14T13:23:40.911Z,43.30
2018-09-14T13:26:08.557Z,43.30
2018-09-14T13:28:36.175Z,43.90
2018-09-14T13:31:03.781Z,44.00
2018-09-14T13:33:31.560Z,44.00
2018-09-14T13:35:59.185Z,43.80
2018-09-14T13:38:26.769Z,43.10
2018-09-14T13:40:54.357Z,43.10
2018-09-14T13:43:22.180Z,43.00
2018-09-14T13:45:49.864Z,43.10
2018-09-14T13:48:17.541Z,43.50
2018-09-14T13:50:48.193Z,43.60
2018-09-14T13:53:15.945Z,42.80
2018-09-14T13:55:43.557Z,42.60
2018-09-14T13:58:11.252Z,42.80
2018-09-14T14:00:38.910Z,42.20
2018-09-14T14:03:06.814Z,41.70
2018-09-14T14:05:34.492Z,41.50
2018-09-14T14:08:02.287Z,41.00
2018-09-14T14:10:29.935Z,41.30
2018-09-14T14:12:57.581Z,41.30
2018-09-14T14:15:25.171Z,40.70
2018-09-14T14:17:53.039Z,40.30
2018-09-14T14:20:20.555Z,40.70
2018-09-14T14:22:51.462Z,41.00
2018-09-14T14:25:19.133Z,40.80
2018-09-14T14:27:46.768Z,41.50
2018-09-14T14:30:21.785Z,41.50
2018-09-14T14:32:49.426Z,41.90
2018-09-14T14:35:17.089Z,41.90
2018-09-14T14:37:44.729Z,41.70
2018-09-14T14:40:12.374Z,41.10
2018-09-14T14:42:40.059Z,41.20
2018-09-14T14:45:07.706Z,40.60
2018-09-14T14:47:35.386Z,40.60
2018-09-14T14:50:03.058Z,40.30
2018-09-14T14:52:31.018Z,40.10
2018-09-14T14:54:58.609Z,40.00
2018-09-14T14:57:27.747Z,39.90
2018-09-14T14:59:55.491Z,40.30
2018-09-14T15:02:23.306Z,40.00
2018-09-14T15:04:51.059Z,40.40
2018-09-14T15:07:18.662Z,41.20
2018-09-14T15:09:46.282Z,41.40
2018-09-14T15:12:13.929Z,41.70
2018-09-14T15:14:41.594Z,41.80
2018-09-14T15:17:09.274Z,42.50
2018-09-14T15:19:44.701Z,41.90
2018-09-14T15:22:12.406Z,42.00
2018-09-14T15:24:40.033Z,42.30
2018-09-14T15:27:07.674Z,42.70
2018-09-14T15:29:35.310Z,43.50
2018-09-14T15:32:02.961Z,43.60
2018-09-14T15:34:30.583Z,44.00
2018-09-14T15:36:58.264Z,44.20
2018-09-14T15:39:25.891Z,44.10
2018-09-14T15:41:53.647Z,44.50
2018-09-14T15:44:21.214Z,44.80
2018-09-14T15:46:48.880Z,45.00
2018-09-14T15:49:17.387Z,45.70
2018-09-14T15:51:45.013Z,45.70
2018-09-14T15:54:12.660Z,46.00
2018-09-14T15:56:40.263Z,46.30
2018-09-14T15:59:07.959Z,46.90
2018-09-14T16:01:35.598Z,46.80
2018-09-14T16:04:03.328Z,47.10
2018-09-14T16:06:31.225Z,47.00
2018-09-14T16:08:59.278Z,47.20
2018-09-14T16:11:26.921Z,47.50
2018-09-14T16:13:54.864Z,47.20
2018-09-14T16:16:22.479Z,47.60
2018-09-14T16:18:50.230Z,46.90
2018-09-14T16:21:17.802Z,46.10
2018-09-14T16:23:45.541Z,46.70
2018-09-14T16:26:13.232Z,47.50
2018-09-14T16:28:40.851Z,47.10
2018-09-14T16:31:08.542Z,47.20
2018-09-14T16:33:36.131Z,48.10
2018-09-14T16:36:03.776Z,48.20
2018-09-14T16:38:31.513Z,48.40
2018-09-14T16:40:59.104Z,48.60
2018-09-14T16:43:26.784Z,48.60
2018-09-14T16:45:54.337Z,48.60
2018-09-14T16:48:33.661Z,48.70
2018-09-14T16:51:01.437Z,49.10
2018-09-14T16:53:29.040Z,49.60
2018-09-14T16:55:56.693Z,49.90
2018-09-14T16:58:24.730Z,50.20
2018-09-14T17:00:52.372Z,50.50
2018-09-14T17:03:20.105Z,51.30
2018-09-14T17:05:51.285Z,51.40
2018-09-14T17:08:18.932Z,51.80
2018-09-14T17:10:46.554Z,52.40
2018-09-14T17:13:14.177Z,52.90
2018-09-14T17:15:41.824Z,53.40
2018-09-14T17:18:09.448Z,55.20
2018-09-14T17:20:37.310Z,55.90
2018-09-14T17:23:04.943Z,57.00
2018-09-14T17:25:32.513Z,56.40
2018-09-14T17:28:00.125Z,56.80
2018-09-14T17:30:27.748Z,57.90
2018-09-14T17:32:57.233Z,58.50
2018-09-14T17:35:25.705Z,59.20
2018-09-14T17:37:53.280Z,60.10
2018-09-14T17:40:20.931Z,62.20
2018-09-14T17:42:49.906Z,63.10
2018-09-14T17:45:18.713Z,65.20
2018-09-14T17:47:48.272Z,68.10
2018-09-14T17:50:17.457Z,69.70
2018-09-14T17:52:45.323Z,72.00
2018-09-14T17:55:13.021Z,73.70
2018-09-14T17:57:51.853Z,76.40
2018-09-14T18:00:20.616Z,78.20
2018-09-14T18:02:48.272Z,81.60
2018-09-14T18:05:16.913Z,84.50
2018-09-14T18:07:45.609Z,87.60
2018-09-14T18:10:13.249Z,90.40
2018-09-14T18:12:40.923Z,90.80
2018-09-14T18:15:09.944Z,91.80
2018-09-14T18:17:37.704Z,93.40
2018-09-14T18:20:06.194Z,94.80
2018-09-14T18:22:37.010Z,95.70
2018-09-14T18:25:11.445Z,96.90
2018-09-14T18:27:42.319Z,97.10
2018-09-14T18:30:10.083Z,98.60
2018-09-14T18:32:37.818Z,99.30
2018-09-14T18:35:05.568Z,99.70
2018-09-14T18:37:33.230Z,99.90
2018-09-14T18:40:01.954Z,99.90
2018-09-14T18:42:29.654Z,99.90
2018-09-14T18:44:57.346Z,99.90
2018-09-14T18:47:25.073Z,99.90
2018-09-14T18:49:53.303Z,99.90
2018-09-14T18:52:20.985Z,99.90
2018-09-14T18:54:48.658Z,99.90
2018-09-14T18:57:16.473Z,99.90
2018-09-14T18:59:44.194Z,99.90
2018-09-14T19:02:11.865Z,99.90
2018-09-14T19:04:39.497Z,99.90
2018-09-14T19:07:07.284Z,99.90
2018-09-14T19:09:34.934Z,99.90
2018-09-14T19:12:02.567Z,99.90
2018-09-14T19:14:30.258Z,99.90
2018-09-14T19:16:57.986Z,99.90
2018-09-14T19:19:25.681Z,99.90
2018-09-14T19:21:53.361Z,99.90
2018-09-14T19:24:21.077Z,99.90
2018-09-14T19:26:53.483Z,99.90
2018-09-14T19:29:21.946Z,99.90
2018-09-14T19:31:49.697Z,99.90
2018-09-14T19:34:17.294Z,99.90
2018-09-14T19:36:58.317Z,99.90
2018-09-14T19:39:25.985Z,99.90
2018-09-14T19:41:53.650Z,99.90
2018-09-14T19:44:21.425Z,99.90
2018-09-14T19:46:49.049Z,99.90
2018-09-14T19:49:16.753Z,99.90
2018-09-14T19:51:44.552Z,99.90
2018-09-14T19:54:12.295Z,99.90
2018-09-14T19:56:39.977Z,99.90
2018-09-14T19:59:12.425Z,99.90
2018-09-14T20:01:40.238Z,99.90
2018-09-14T20:04:07.920Z,99.90
2018-09-14T20:06:35.698Z,99.90
2018-09-14T20:09:06.394Z,99.90
2018-09-14T20:11:34.405Z,99.90
2018-09-14T20:14:02.369Z,99.90
2018-09-14T20:16:30.274Z,99.90
2018-09-14T20:18:58.458Z,99.90
2018-09-14T20:21:26.428Z,99.90
2018-09-14T20:23:54.506Z,99.90
2018-09-14T20:26:22.423Z,99.90
2018-09-14T20:28:50.440Z,99.90
2018-09-14T20:31:18.483Z,99.90
2018-09-14T20:33:46.415Z,99.90
2018-09-14T20:36:14.403Z,99.90
2018-09-14T20:38:43.611Z,99.90
2018-09-14T20:41:12.415Z,99.90
2018-09-14T20:43:40.275Z,99.90
2018-09-14T20:46:08.270Z,99.90
2018-09-14T20:48:36.194Z,99.90
2018-09-14T20:51:04.146Z,99.90
2018-09-14T20:53:32.154Z,99.90
2018-09-14T20:56:00.211Z,99.90
2018-09-14T20:58:28.330Z,99.90
2018-09-14T21:00:56.309Z,99.90
2018-09-14T21:03:24.392Z,99.90
2018-09-14T21:05:54.698Z,99.90
2018-09-14T21:08:22.665Z,99.90
2018-09-14T21:10:50.655Z,99.90
2018-09-14T21:13:18.628Z,99.90
2018-09-14T21:15:46.607Z,99.90
2018-09-14T21:18:14.575Z,99.90
2018-09-14T21:20:42.792Z,99.90
2018-09-14T21:23:10.964Z,99.90
2018-09-14T21:25:38.873Z,99.90
2018-09-14T21:28:06.905Z,99.90
2018-09-14T21:30:34.857Z,99.90
2018-09-14T21:33:02.821Z,99.90
2018-09-14T21:35:30.824Z,99.90
2018-09-14T21:37:58.730Z,99.90
2018-09-14T21:40:26.708Z,99.90
2018-09-14T21:42:54.654Z,99.90
2018-09-14T21:45:22.626Z,99.90
2018-09-14T21:47:50.469Z,99.90
2018-09-14T21:50:18.399Z,99.90
2018-09-14T21:52:46.327Z,99.90
2018-09-14T21:55:14.342Z,99.90
2018-09-14T21:57:42.318Z,99.90
2018-09-14T22:00:16.526Z,99.90
2018-09-14T22:02:45.344Z,99.90
2018-09-14T22:05:13.438Z,99.90
2018-09-14T22:07:41.334Z,99.90
2018-09-14T22:10:09.277Z,99.90
2018-09-14T22:12:37.206Z,99.90
2018-09-14T22:15:05.090Z,99.90
2018-09-14T22:17:33.118Z,99.90
2018-09-14T22:20:01.043Z,99.90
2018-09-14T22:22:28.918Z,99.90
2018-09-14T22:24:57.020Z,99.90
2018-09-14T22:27:30.542Z,99.90
2018-09-14T22:29:58.448Z,99.90
2018-09-14T22:32:26.365Z,99.90
2018-09-14T22:34:54.277Z,99.90
2018-09-14T22:37:22.194Z,99.90
2018-09-14T22:39:50.153Z,99.90
2018-09-14T22:42:18.122Z,99.90
2018-09-14T22:44:46.081Z,99.90
2018-09-14T22:47:13.957Z,99.90
2018-09-14T22:49:41.992Z,99.90
2018-09-14T22:52:09.875Z,99.90
2018-09-14T22:54:37.898Z,99.90
2018-09-14T22:57:05.838Z,99.90
2018-09-14T22:59:33.815Z,99.90
2018-09-14T23:02:01.823Z,99.90
2018-09-14T23:04:29.755Z,99.90
2018-09-14T23:06:57.650Z,99.90
2018-09-14T23:09:25.840Z,99.90
2018-09-14T23:11:53.726Z,99.90
2018-09-14T23:14:21.582Z,99.90
2018-09-14T23:16:49.641Z,99.90
2018-09-14T23:19:17.606Z,99.90
2018-09-14T23:21:45.562Z,99.90
2018-09-14T23:24:13.412Z,99.90
2018-09-14T23:26:41.418Z,99.90
2018-09-14T23:29:09.329Z,99.90
2018-09-14T23:31:37.243Z,99.90
2018-09-14T23:34:05.256Z,99.90
2018-09-14T23:36:33.314Z,99.90
2018-09-14T23:39:01.214Z,99.90
2018-09-14T23:41:29.142Z,99.90
2018-09-14T23:43:57.216Z,99.90
2018-09-14T23:46:25.078Z,99.90
2018-09-14T23:48:53.052Z,99.90
2018-09-14T23:51:20.898Z,99.90
2018-09-14T23:53:48.768Z,99.90
2018-09-14T23:56:16.686Z,99.90
2018-09-14T23:58:44.634Z,99.90
